Latest Weather Observations for Lucas Heights

IDN60801

Issued at 10:32 am EDT Monday 27 February 2017 (issued every 30 minutes, with the page automatically refreshed every 10 minutes)

About weather observations | Map of weather stations | Latest weather observations for NSW | Other Formats
Station Details ID: 066023 Name: LUCAS HEIGHTS AWS Lat: -34.05 Lon: 150.98 Height: 140.0 m
Data from the previous 72 hours. | See also: Recent months for locations in New South Wales
Date/Time
EDT
Temp
°C
App
Temp
°C
Dew
Point
°C
Rel
Hum
%
Delta-T
°C
Wind Press
QNH
hPa
Press
MSL
hPa
Rain since
9am
mm
Dir  Spd
km/h
Gust
km/h
Spd
kts
Gust
kts
27/10:15am 22.6 21.1 16.8 69 3.6 ESE 20 30 11 16 1024.4 - 0.0
27/10:00am 22.1 21.2 16.8 72 3.3 ESE 17 26 9 14 1024.4 - 0.0
27/09:45am 21.8 20.9 16.8 73 3.1 ESE 17 26 9 14 1024.4 - 0.0
27/09:30am 21.8 20.9 16.9 73 3.0 ESE 17 30 9 16 1024.3 - 0.0
27/09:15am 21.8 20.8 16.7 73 3.1 ESE 17 24 9 13 1024.1 - 0.0
27/09:00am 21.3 20.4 16.8 75 2.8 ESE 17 26 9 14 1023.9 - 8.1
27/08:45am 21.0 20.0 16.7 76 2.6 ESE 17 28 9 15 1023.8 - 8.1
27/08:30am 20.7 20.1 16.6 77 2.5 ESE 15 20 8 11 1023.7 - 8.1
27/08:15am 20.4 19.7 16.4 78 2.4 ESE 15 20 8 11 1023.5 - 8.1
27/08:00am 20.1 19.4 16.4 79 2.2 ESE 15 22 8 12 1023.4 - 8.1
27/07:45am 19.8 18.7 16.4 81 2.1 ESE 17 22 9 12 1023.2 - 8.1
27/07:30am 19.5 18.8 16.5 83 1.8 ESE 15 20 8 11 1023.1 - 8.1
27/07:15am 19.4 18.8 16.6 84 1.7 ESE 15 20 8 11 1022.9 - 8.1
27/07:00am 19.1 18.4 16.5 85 1.6 ESE 15 19 8 10 1022.8 - 8.1
27/06:45am 19.3 18.6 16.5 84 1.7 SE 15 20 8 11 1022.7 - 8.1
27/06:30am 19.5 18.5 16.6 83 1.8 ESE 17 22 9 12 1022.5 - 8.1
27/06:15am 19.4 18.1 16.7 84 1.6 ESE 19 22 10 12 1022.5 - 8.1
27/06:00am 19.4 18.9 16.8 85 1.6 E 15 20 8 11 1022.4 - 8.1
27/05:45am 19.3 18.4 16.8 85 1.5 E 17 22 9 12 1022.3 - 8.1
27/05:30am 19.2 18.3 16.8 86 1.5 E 17 22 9 12 1022.1 - 8.1
27/05:15am 19.2 18.3 16.9 86 1.4 E 17 22 9 12 1021.9 - 8.1
27/05:00am 19.2 17.9 16.9 86 1.4 E 19 26 10 14 1021.8 - 8.1
27/04:45am 19.1 17.9 17.0 88 1.3 E 19 26 10 14 1021.8 - 8.1
27/04:30am 19.1 17.9 17.1 88 1.2 E 19 26 10 14 1021.7 - 8.1
27/04:15am 19.0 17.7 17.2 89 1.1 E 20 28 11 15 1021.7 - 8.1
27/04:00am 18.9 17.2 17.3 90 1.0 E 22 30 12 16 1021.7 - 7.9
27/03:45am 18.3 16.4 16.7 90 1.0 E 22 30 12 16 1021.7 - 7.9
27/03:30am 17.8 16.3 16.2 90 1.0 ESE 19 28 10 15 1021.9 - 7.9
27/03:15am 17.5 16.7 16.0 91 0.9 SE 15 24 8 13 1022.0 - 7.9
27/03:00am 17.5 16.6 15.9 90 0.9 SSE 15 20 8 11 1022.0 - 7.9
27/02:45am 17.4 16.5 15.8 90 0.9 SSE 15 20 8 11 1022.1 - 7.7
27/02:30am 17.3 16.7 15.7 90 0.9 S 13 19 7 10 1022.3 - 7.4
27/02:15am 17.4 16.9 15.8 90 0.9 S 13 20 7 11 1022.4 - 5.6
27/02:00am 17.4 16.9 15.8 90 0.9 S 13 20 7 11 1022.4 - 5.0
27/01:45am 17.5 17.0 15.8 90 1.0 S 13 20 7 11 1022.4 - 4.1
27/01:30am 17.5 17.3 15.8 90 1.0 S 11 17 6 9 1022.5 - 3.2
27/01:15am 17.4 16.8 15.6 89 1.1 S 13 20 7 11 1022.6 - 2.2
27/01:00am 17.6 16.6 15.7 89 1.1 S 15 22 8 12 1022.7 - 0.5
27/12:45am 17.5 16.8 15.5 88 1.2 SSE 13 19 7 10 1022.8 - 0.4
27/12:30am 17.5 16.7 15.2 86 1.3 S 13 19 7 10 1022.8 - 0.2
27/12:15am 17.6 16.8 15.2 86 1.4 S 13 22 7 12 1022.7 - 0.0
27/12:00am 17.6 16.4 15.1 85 1.5 S 15 24 8 13 1022.7 - 0.0
 
Date/Time
EDT
Temp
°C
App
Temp
°C
Dew
Point
°C
Rel
Hum
%
Delta-T
°C
Wind Press
QNH
hPa
Press
MSL
hPa
Rain since
9am
mm
Dir  Spd
km/h
Gust
km/h
Spd
kts
Gust
kts
26/11:45pm 17.7 16.1 15.1 85 1.5 S 17 26 9 14 1022.9 - 0.0
26/11:30pm 17.6 16.7 14.9 84 1.6 S 13 24 7 13 1023.0 - 0.0
26/11:15pm 17.5 16.2 14.9 85 1.5 S 15 24 8 13 1023.0 - 0.0
26/11:00pm 17.6 16.3 14.9 84 1.6 S 15 26 8 14 1023.2 - 0.0
26/10:45pm 17.7 16.4 14.8 83 1.7 S 15 30 8 16 1023.3 - 0.0
26/10:30pm 18.0 16.3 14.8 81 1.9 S 17 30 9 16 1023.3 - 0.0
26/10:15pm 18.2 16.1 14.6 79 2.1 SSE 19 26 10 14 1023.3 - 0.0
26/10:00pm 18.3 16.1 14.5 78 2.2 SSE 19 28 10 15 1023.2 - 0.0
26/09:45pm 18.7 16.5 14.4 76 2.5 S 19 33 10 18 1023.0 - 0.0
26/09:30pm 19.3 16.9 14.4 73 2.9 SSE 20 37 11 20 1022.9 - 0.0
26/09:15pm 19.4 17.9 14.3 72 3.0 S 15 26 8 14 1022.8 - 0.0
26/09:00pm 19.5 17.0 14.2 71 3.1 SSE 20 32 11 17 1022.6 - 0.0
26/08:45pm 19.7 16.9 14.2 70 3.2 SSE 22 35 12 19 1022.3 - 0.0
26/08:30pm 19.9 15.5 14.2 69 3.3 SSE 30 43 16 23 1022.1 - 0.0
26/08:15pm 20.0 16.5 14.4 70 3.3 SSE 26 39 14 21 1022.0 - 0.0
26/08:00pm 20.1 17.3 14.2 69 3.4 SSE 22 39 12 21 1021.9 - 0.0
26/07:45pm 20.3 17.7 13.2 63 4.1 SSE 19 32 10 17 1021.8 - 0.0
26/07:30pm 20.5 17.1 12.6 60 4.5 SSE 22 35 12 19 1021.8 - 0.0
26/07:15pm 20.7 17.7 12.5 59 4.7 SSE 20 33 11 18 1021.7 - 0.0
26/07:00pm 21.0 16.7 12.1 56 5.0 SSE 26 39 14 21 1021.6 - 0.0
26/06:45pm 21.4 17.2 12.4 56 5.1 SSE 26 37 14 20 1021.5 - 0.0
26/06:30pm 21.7 18.8 12.8 57 5.1 SSE 20 35 11 19 1021.4 - 0.0
26/06:15pm 21.1 17.4 12.8 59 4.7 SSE 24 32 13 17 1021.4 - 0.0
26/06:00pm 21.0 17.8 13.0 60 4.6 SSE 22 39 12 21 1021.3 - 0.0
26/05:45pm 21.1 17.9 13.0 60 4.6 SSE 22 37 12 20 1021.3 - 0.0
26/05:30pm 21.2 17.1 12.7 58 4.9 SSE 26 39 14 21 1021.3 - 0.0
26/05:15pm 21.8 17.7 12.8 56 5.2 SSE 26 39 14 21 1021.2 - 0.0
26/05:00pm 21.9 17.8 12.8 56 5.2 SSE 26 43 14 23 1021.2 - 0.0
26/04:45pm 22.3 17.8 12.5 53 5.6 SSE 28 43 15 23 1021.2 - 0.0
26/04:30pm 22.4 18.4 12.9 55 5.5 SSE 26 39 14 21 1021.2 - 0.0
26/04:15pm 22.8 19.1 13.8 57 5.3 SSE 26 41 14 22 1021.1 - 0.0
26/04:00pm 22.5 19.7 14.2 59 4.9 SSE 22 39 12 21 1021.2 - 0.0
26/03:45pm 22.8 20.1 14.5 59 4.9 SSE 22 35 12 19 1021.4 - 0.0
26/03:30pm 22.8 20.4 14.4 59 5.0 SSE 20 39 11 21 1021.5 - 0.0
26/03:15pm 22.7 19.4 13.9 57 5.2 SSE 24 37 13 20 1021.5 - 0.0
26/03:00pm 22.7 19.1 14.3 59 5.0 SSE 26 43 14 23 1021.6 - 0.0
26/02:45pm 21.4 18.0 14.7 65 4.0 SSE 26 41 14 22 1021.7 - 0.0
26/02:30pm 21.5 18.4 14.6 65 4.1 SSE 24 37 13 20 1021.9 - 0.0
26/02:15pm 21.6 18.9 14.7 65 4.1 SSE 22 35 12 19 1022.1 - 0.0
26/02:00pm 21.9 18.0 14.4 62 4.4 SSE 28 37 15 20 1022.2 - 0.0
26/01:45pm 22.2 20.2 15.0 63 4.3 SSE 19 32 10 17 1022.3 - 0.0
26/01:30pm 22.0 20.1 15.1 65 4.1 SSE 19 28 10 15 1022.5 - 0.0
26/01:15pm 21.2 19.3 15.1 68 3.6 SSE 19 30 10 16 1022.7 - 0.0
26/01:00pm 21.1 19.0 15.3 69 3.5 SSE 20 28 11 15 1022.8 - 0.0
26/12:45pm 21.4 19.3 14.7 65 4.0 SSE 19 30 10 16 1022.8 - 0.0
26/12:30pm 21.4 18.1 14.0 62 4.3 SSE 24 35 13 19 1022.9 - 0.0
26/12:15pm 21.4 18.5 13.9 62 4.4 SSE 22 32 12 17 1022.9 - 0.0
26/12:00pm 21.3 18.7 14.8 66 3.8 SSE 22 35 12 19 1023.0 - 0.0
26/11:45am 21.1 18.5 14.8 67 3.7 SSE 22 32 12 17 1023.0 - 0.0
26/11:30am 20.9 18.2 14.5 67 3.8 SSE 22 32 12 17 1022.9 - 0.0
26/11:15am 20.6 18.0 15.0 70 3.3 SSE 22 35 12 19 1023.0 - 0.0
26/11:00am 20.4 19.1 15.7 74 2.8 SSE 17 26 9 14 1023.0 - 0.0
26/10:45am 20.3 18.5 15.5 74 2.9 SSE 19 30 10 16 1023.1 - 0.0
26/10:30am 20.7 18.4 15.7 73 3.0 SSE 22 37 12 20 1022.9 - 0.0
26/10:15am 20.4 18.7 15.7 74 2.8 SSE 19 24 10 13 1022.8 - 0.0
26/10:00am 20.2 18.2 15.5 74 2.8 SSE 20 28 11 15 1022.7 - 0.0
26/09:45am 20.3 19.3 15.5 74 2.9 SSE 15 26 8 14 1022.5 - 0.0
26/09:30am 20.2 19.4 15.2 73 3.0 SSE 13 20 7 11 1022.3 - 0.0
26/09:15am 20.6 19.1 15.3 71 3.2 SE 17 28 9 15 1022.0 - 0.0
26/09:00am 20.8 19.8 15.6 72 3.1 SE 15 26 8 14 1021.8 - 34.9
26/08:45am 20.2 19.2 15.7 75 2.7 SE 15 20 8 11 1021.6 - 34.9
26/08:30am 19.3 18.6 15.5 78 2.3 SSE 13 20 7 11 1021.5 - 34.9
26/08:15am 18.9 17.9 15.5 80 2.0 SSE 15 20 8 11 1021.5 - 34.9
26/08:00am 18.0 16.9 15.4 85 1.5 SSE 15 19 8 10 1021.4 - 34.9
26/07:45am 17.4 16.6 15.1 86 1.3 SSE 13 19 7 10 1021.3 - 34.9
26/07:30am 17.2 16.4 15.0 87 1.3 SSE 13 17 7 9 1021.2 - 34.9
26/07:15am 17.2 16.4 15.2 88 1.2 SSE 13 19 7 10 1021.2 - 34.9
26/07:00am 17.1 16.0 15.2 88 1.1 SE 15 19 8 10 1021.0 - 34.9
26/06:45am 16.9 15.7 15.0 88 1.1 SSE 15 20 8 11 1020.8 - 34.9
26/06:30am 17.0 16.2 15.2 89 1.1 SSE 13 20 7 11 1020.5 - 34.9
26/06:15am 17.1 15.2 15.2 88 1.1 SE 19 26 10 14 1020.4 - 34.9
26/06:00am 17.2 15.2 15.5 90 1.0 ESE 20 33 11 18 1020.6 - 34.9
26/05:45am 16.9 14.5 15.3 90 0.9 SSE 22 32 12 17 1020.6 - 34.4
26/05:30am 17.2 14.8 15.5 90 1.0 SSE 22 35 12 19 1020.4 - 33.8
26/05:15am 17.4 16.1 15.7 90 1.0 SSE 17 26 9 14 1020.1 - 33.3
26/05:00am 17.5 17.3 15.8 90 1.0 SE 11 15 6 8 1019.9 - 33.3
26/04:45am 17.8 16.6 16.1 90 1.0 ESE 17 24 9 13 1019.8 - 33.1
26/04:30am 17.6 15.8 16.0 90 1.0 ESE 20 28 11 15 1019.8 - 32.4
26/04:15am 17.4 15.7 15.8 90 0.9 SE 19 30 10 16 1019.8 - 31.7
26/04:00am 17.5 16.2 15.9 90 0.9 SE 17 22 9 12 1019.8 - 31.5
26/03:45am 17.6 17.5 16.0 90 1.0 SSE 11 19 6 10 1020.0 - 30.6
26/03:30am 17.8 18.5 16.2 90 1.0 SE 7 15 4 8 1019.9 - 29.2
26/03:15am 17.8 17.8 16.2 90 1.0 E 11 19 6 10 1019.8 - 27.9
26/03:00am 17.8 16.6 16.2 90 1.0 E 17 30 9 16 1019.8 - 26.8
26/02:45am 18.0 17.7 16.4 90 1.0 ESE 13 20 7 11 1019.9 - 24.1
26/02:30am 17.8 18.2 16.2 90 1.0 SSE 9 15 5 8 1019.9 - 21.6
26/02:15am 17.8 18.5 16.2 90 1.0 SSE 7 17 4 9 1019.8 - 21.4
26/02:00am 17.9 18.7 16.3 90 1.0 ESE 7 17 4 9 1020.0 - 20.3
26/01:45am 18.0 17.3 16.4 90 1.0 E 15 22 8 12 1020.1 - 19.1
26/01:30am 18.1 16.5 16.5 90 1.0 E 20 44 11 24 1020.2 - 16.7
26/01:15am 18.1 19.1 16.4 90 1.0 ESE 6 17 3 9 1020.2 - 9.7
26/01:00am 18.2 18.0 16.6 90 1.0 E 13 20 7 11 1020.4 - 6.7
26/12:45am 18.2 17.2 16.6 90 1.0 E 17 26 9 14 1020.4 - 5.2
26/12:30am 18.3 18.1 16.7 90 1.0 SE 13 19 7 10 1020.4 - 1.8
26/12:15am 18.2 18.7 16.6 90 1.0 SSE 9 15 5 8 1020.3 - 1.1
26/12:00am 18.1 18.5 16.4 90 1.0 S 9 13 5 7 1020.2 - 1.1
 
Date/Time
EDT
Temp
°C
App
Temp
°C
Dew
Point
°C
Rel
Hum
%
Delta-T
°C
Wind Press
QNH
hPa
Press
MSL
hPa
Rain since
9am
mm
Dir  Spd
km/h
Gust
km/h
Spd
kts
Gust
kts
25/11:45pm 18.1 18.9 16.3 89 1.1 S 7 11 4 6 1020.2 - 1.1
25/11:30pm 18.0 18.4 16.2 89 1.1 S 9 15 5 8 1020.3 - 0.9
25/11:15pm 18.1 18.1 16.2 89 1.1 S 11 15 6 8 1020.3 - 0.9
25/11:00pm 18.1 18.0 16.1 88 1.2 S 11 17 6 9 1020.5 - 0.9
25/10:45pm 18.1 17.9 15.8 86 1.4 S 11 17 6 9 1020.6 - 0.9
25/10:30pm 18.4 17.8 15.6 84 1.7 S 13 19 7 10 1020.6 - 0.7
25/10:15pm 18.8 18.2 15.6 82 1.9 S 13 20 7 11 1020.5 - 0.0
25/10:00pm 18.6 17.9 15.4 81 1.9 S 13 20 7 11 1020.4 - 0.0
25/09:45pm 18.3 17.9 15.2 82 1.8 S 11 17 6 9 1020.3 - 0.0
25/09:30pm 18.3 18.2 15.0 81 1.9 S 9 15 5 8 1020.2 - 0.0
25/09:15pm 18.6 18.6 15.1 80 2.1 S 9 15 5 8 1020.2 - 0.0
25/09:00pm 18.7 18.7 15.1 79 2.1 S 9 15 5 8 1020.2 - 0.0
25/08:45pm 18.8 18.4 15.2 79 2.1 S 11 17 6 9 1020.1 - 0.0
25/08:30pm 18.9 18.5 15.2 79 2.2 S 11 17 6 9 1020.1 - 0.0
25/08:15pm 19.0 18.3 15.3 79 2.2 S 13 20 7 11 1020.1 - 0.0
25/08:00pm 18.9 18.6 15.4 80 2.1 S 11 15 6 8 1020.1 - 0.0
25/07:45pm 18.8 18.8 15.3 80 2.1 S 9 17 5 9 1020.0 - 0.0
25/07:30pm 18.5 18.1 15.3 81 1.9 S 11 19 6 10 1020.0 - 0.0
25/07:15pm 18.3 17.2 15.2 82 1.8 S 15 22 8 12 1019.6 - 0.0
25/07:00pm 18.4 16.5 15.1 81 1.9 SSE 19 30 10 16 1019.7 - 0.0
25/06:45pm 19.0 16.5 15.1 78 2.3 SSE 22 37 12 20 1019.5 - 0.0
25/06:30pm 19.4 16.9 15.1 76 2.5 SSE 22 35 12 19 1019.3 - 0.0
25/06:15pm 19.6 17.7 15.3 76 2.5 SSE 19 33 10 18 1019.3 - 0.0
25/06:00pm 19.7 18.2 15.3 76 2.6 SSE 17 28 9 15 1019.6 - 0.0
25/05:45pm 19.5 17.6 15.2 76 2.5 SSE 19 30 10 16 1019.7 - 0.0
25/05:30pm 19.5 17.4 15.2 76 2.5 SSE 20 30 11 16 1019.6 - 0.0
25/05:15pm 19.7 17.6 15.3 76 2.6 SSE 20 32 11 17 1019.6 - 0.0
25/05:00pm 19.7 17.6 15.3 76 2.6 SSE 20 32 11 17 1019.6 - 0.0
25/04:45pm 19.7 17.6 15.2 75 2.7 SSE 20 32 11 17 1019.7 - 0.0
25/04:30pm 19.9 17.4 15.1 74 2.8 SSE 22 39 12 21 1019.7 - 0.0
25/04:15pm 20.2 18.1 15.2 73 3.0 S 20 32 11 17 1019.7 - 0.0
25/04:00pm 20.4 18.4 15.4 73 3.0 S 20 35 11 19 1019.8 - 0.0
25/03:45pm 19.7 16.4 14.9 74 2.8 SSE 26 41 14 22 1019.9 - 0.0
25/03:30pm 20.1 17.9 15.0 72 3.0 SSE 20 35 11 19 1019.9 - 0.0
25/03:15pm 19.8 17.6 14.9 73 2.9 SSE 20 32 11 17 1020.0 - 0.0
25/03:00pm 19.9 17.3 14.8 72 3.0 SSE 22 35 12 19 1020.1 - 0.0
25/02:45pm 20.2 18.1 15.1 72 3.0 S 20 30 11 16 1020.2 - 0.0
25/02:30pm 20.0 17.4 15.0 73 3.0 SSE 22 33 12 18 1020.3 - 0.0
25/02:15pm 20.3 18.2 15.1 72 3.1 S 20 37 11 20 1020.3 - 0.0
25/02:00pm 20.2 17.7 15.1 72 3.0 SSE 22 41 12 22 1020.4 - 0.0
25/01:45pm 20.2 18.1 15.2 73 3.0 SSE 20 32 11 17 1020.5 - 0.0
25/01:30pm 19.7 16.8 15.0 74 2.8 SSE 24 35 13 19 1020.6 - 0.0
25/01:15pm 19.7 16.4 14.9 74 2.8 SSE 26 39 14 21 1020.6 - 0.0
25/01:00pm 20.4 18.0 15.3 72 3.0 SSE 22 32 12 17 1020.5 - 0.0
25/12:45pm 20.2 17.8 15.4 74 2.9 SSE 22 37 12 20 1020.7 - 0.0
25/12:30pm 19.9 16.4 15.4 75 2.7 SSE 28 43 15 23 1020.7 - 0.0
25/12:15pm 20.0 16.4 15.3 74 2.8 SSE 28 41 15 22 1020.8 - 0.0
25/12:00pm 19.8 15.8 15.2 75 2.7 SSE 30 43 16 23 1020.9 - 0.0
25/11:45am 19.6 16.4 15.3 76 2.5 SSE 26 41 14 22 1021.0 - 0.0
25/11:30am 19.2 15.5 15.1 77 2.4 SSE 28 43 15 23 1021.1 - 0.0
25/11:15am 19.0 15.7 15.0 77 2.4 SSE 26 39 14 21 1021.1 - 0.0
25/11:00am 19.0 15.3 15.0 77 2.4 SSE 28 44 15 24 1021.1 - 0.0
25/10:45am 19.3 15.7 15.2 77 2.4 SSE 28 39 15 21 1021.0 - 0.0
25/10:30am 19.1 15.1 15.2 78 2.3 SSE 30 44 16 24 1020.9 - 0.0
25/10:15am 19.1 15.1 15.1 77 2.4 SSE 30 43 16 23 1020.9 - 0.0
25/10:00am 19.0 16.2 15.4 79 2.1 SSE 24 39 13 21 1020.9 - 0.0
25/09:45am 18.8 16.0 15.3 80 2.1 SSE 24 39 13 21 1020.7 - 0.0
25/09:30am 18.9 16.6 15.6 81 2.0 SSE 22 35 12 19 1020.6 - 0.0
25/09:15am 18.3 15.5 15.3 83 1.8 SSE 24 39 13 21 1020.6 - 0.0
25/09:00am 18.4 15.7 15.5 83 1.7 SSE 24 39 13 21 1020.5 - 0.2
25/08:45am 18.3 14.8 15.4 83 1.7 SSE 28 43 15 23 1020.4 - 0.2
25/08:30am 18.2 15.4 15.4 84 1.7 SSE 24 39 13 21 1020.3 - 0.2
25/08:15am 17.8 14.9 15.2 85 1.5 SSE 24 37 13 20 1020.3 - 0.2
25/08:00am 17.7 15.2 15.2 85 1.5 SSE 22 35 12 19 1020.3 - 0.2
25/07:45am 17.7 14.1 15.3 86 1.4 SSE 28 41 15 22 1020.0 - 0.2
25/07:30am 17.7 13.8 15.4 86 1.4 SSE 30 39 16 21 1019.8 - 0.2
25/07:15am 17.7 13.8 15.5 87 1.3 SSE 30 43 16 23 1019.7 - 0.2
25/07:00am 17.8 14.7 15.6 87 1.3 SSE 26 39 14 21 1019.5 - 0.2
25/06:45am 17.8 15.2 15.8 88 1.2 SSE 24 39 13 21 1019.4 - 0.2
25/06:30am 17.8 15.5 15.8 88 1.2 SSE 22 37 12 20 1019.2 - 0.2
25/06:15am 17.8 14.8 15.8 88 1.2 SSE 26 39 14 21 1019.0 - 0.2
25/06:00am 17.9 14.9 15.8 87 1.2 SSE 26 41 14 22 1018.9 - 0.2
25/05:45am 18.0 15.1 16.0 88 1.2 SSE 26 39 14 21 1018.7 - 0.2
25/05:30am 18.2 14.2 16.2 88 1.2 SSE 32 43 17 23 1018.7 - 0.2
25/05:15am 18.1 14.9 16.2 89 1.1 SSE 28 43 15 23 1018.7 - 0.2
25/05:00am 18.1 14.5 16.2 89 1.1 SSE 30 44 16 24 1018.6 - 0.2
25/04:45am 18.1 15.3 16.3 89 1.1 SSE 26 43 14 23 1018.6 - 0.2
25/04:30am 18.0 14.8 16.3 90 1.0 SSE 28 48 15 26 1018.6 - 0.0
25/04:15am 18.0 15.5 16.2 89 1.1 SSE 24 37 13 20 1018.6 - 0.0
25/04:00am 18.1 15.7 16.3 89 1.1 SSE 24 35 13 19 1018.6 - 0.0
25/03:45am 18.3 15.5 16.4 89 1.1 SSE 26 39 14 21 1018.7 - 0.0
25/03:30am 18.4 16.0 16.5 89 1.1 SSE 24 39 13 21 1018.7 - 0.0
25/03:15am 18.5 15.4 16.5 88 1.2 SSE 28 44 15 24 1018.7 - 0.0
25/03:00am 18.9 15.8 16.6 86 1.4 SSE 28 44 15 24 1018.7 - 0.0
25/02:45am 19.4 16.8 16.9 85 1.5 SSE 26 43 14 23 1018.7 - 0.0
25/02:30am 19.4 17.2 17.0 86 1.5 SSE 24 37 13 20 1018.9 - 0.0
25/02:15am 19.5 18.1 17.1 86 1.5 SSE 20 35 11 19 1019.0 - 0.0
25/02:00am 19.6 17.5 17.1 85 1.5 SSE 24 35 13 19 1019.1 - 0.0
25/01:45am 19.7 18.3 17.1 85 1.6 SSE 20 32 11 17 1019.2 - 0.0
25/01:30am 20.0 18.9 17.2 84 1.7 S 19 33 10 18 1019.3 - 0.0
25/01:15am 20.2 19.4 17.1 82 1.9 S 17 26 9 14 1019.6 - 0.0
25/01:00am 20.5 20.6 17.5 83 1.9 S 13 22 7 12 1020.0 - 0.0
25/12:45am 20.6 21.2 17.6 83 1.9 S 11 22 6 12 1020.1 - 0.0
25/12:30am 20.6 21.6 17.7 83 1.8 S 9 20 5 11 1019.6 - 0.0
25/12:15am 20.9 20.5 18.0 83 1.8 S 17 32 9 17 1019.4 - 0.0
25/12:00am 21.2 20.4 18.4 84 1.8 SSE 20 39 11 21 1019.4 - 0.0
 
Date/Time
EDT
Temp
°C
App
Temp
°C
Dew
Point
°C
Rel
Hum
%
Delta-T
°C
Wind Press
QNH
hPa
Press
MSL
hPa
Rain since
9am
mm
Dir  Spd
km/h
Gust
km/h
Spd
kts
Gust
kts
24/11:45pm 21.5 21.3 18.5 83 1.9 SSE 17 26 9 14 1019.2 - 0.0
24/11:30pm 21.7 21.5 18.4 81 2.1 SSE 17 24 9 13 1019.3 - 0.0
24/11:15pm 21.8 22.7 18.5 81 2.1 SSE 11 20 6 11 1019.7 - 0.0
24/11:00pm 21.9 23.3 18.6 81 2.1 SSW 9 13 5 7 1020.1 - 0.0
24/10:45pm 21.9 23.3 18.6 81 2.1 SSW 9 15 5 8 1020.3 - 0.0
24/10:30pm 21.9 23.3 18.7 82 2.0 SW 9 17 5 9 1020.5 - 0.0
24/10:15pm 21.8 22.0 18.6 82 2.0 SSE 15 30 8 16 1020.1 - 0.0
24/10:00pm 21.9 21.4 18.6 81 2.1 SSE 19 28 10 15 1019.9 - 0.0
24/09:45pm 21.8 21.3 18.6 82 2.0 SSE 19 26 10 14 1019.8 - 0.0
24/09:30pm 21.8 21.0 18.5 81 2.1 SSE 20 30 11 16 1019.7 - 0.0
24/09:15pm 21.7 21.5 18.5 82 2.0 SSE 17 24 9 13 1019.5 - 0.0
24/09:00pm 21.6 21.8 18.5 82 2.0 SSE 15 24 8 13 1019.3 - 0.0
24/08:45pm 21.5 20.9 18.4 82 1.9 SSE 19 24 10 13 1019.0 - 0.0
24/08:30pm 21.4 20.8 18.4 83 1.9 SSE 19 26 10 14 1019.0 - 0.0
24/08:15pm 21.3 20.5 18.4 83 1.8 SSE 20 26 11 14 1018.9 - 0.0
24/08:00pm 21.2 21.0 18.4 84 1.8 SSE 17 26 9 14 1018.7 - 0.0
24/07:45pm 21.2 20.5 18.3 83 1.8 SSE 19 26 10 14 1018.6 - 0.0
24/07:30pm 21.3 21.1 18.4 83 1.8 SSE 17 26 9 14 1018.6 - 0.0
24/07:15pm 21.5 20.9 18.5 83 1.9 SSE 19 24 10 13 1018.5 - 0.0
24/07:00pm 21.6 21.0 18.5 82 2.0 SSE 19 26 10 14 1018.4 - 0.0
24/06:45pm 21.8 21.3 18.6 82 2.0 SSE 19 28 10 15 1018.3 - 0.0
24/06:30pm 22.1 21.4 18.6 80 2.2 SSE 20 30 11 16 1018.1 - 0.0
24/06:15pm 22.7 21.6 18.7 78 2.5 SSE 22 32 12 17 1017.9 - 0.0
24/06:00pm 23.0 22.4 18.9 78 2.6 SSE 20 32 11 17 1017.8 - 0.0
24/05:45pm 23.3 22.9 18.8 76 2.9 SE 19 28 10 15 1017.7 - 0.0
24/05:30pm 23.9 23.9 18.9 73 3.2 SE 17 24 9 13 1017.6 - 0.0
24/05:15pm 24.6 24.2 19.0 71 3.6 ESE 19 26 10 14 1017.6 - 0.0
24/05:00pm 25.4 25.5 19.1 68 4.1 ESE 17 24 9 13 1017.6 - 0.0
24/04:45pm 25.9 25.9 18.9 65 4.5 E 17 24 9 13 1017.6 - 0.0
24/04:30pm 26.3 26.7 19.0 64 4.7 E 15 24 8 13 1017.6 - 0.0
24/04:15pm 26.5 26.9 18.9 63 4.9 E 15 22 8 12 1017.7 - 0.0
24/04:00pm 26.5 27.6 18.9 63 4.9 ENE 11 17 6 9 1017.9 - 0.0
24/03:45pm 26.0 26.7 18.9 65 4.6 ENE 13 19 7 10 1018.0 - 0.0
24/03:30pm 25.7 26.7 18.6 65 4.5 ENE 11 20 6 11 1018.2 - 0.0
24/03:15pm 25.8 26.4 18.6 64 4.6 E 13 20 7 11 1018.4 - 0.0
24/03:00pm 26.0 26.8 19.0 65 4.5 ENE 13 24 7 13 1018.4 - 0.0
24/02:45pm 25.7 26.0 18.8 65 4.4 E 15 20 8 11 1018.3 - 0.0
24/02:30pm 25.7 26.1 18.9 66 4.4 E 15 24 8 13 1018.5 - 0.0
24/02:15pm 25.7 26.1 19.0 66 4.3 E 15 24 8 13 1018.8 - 0.0
24/02:00pm 25.3 26.6 19.2 69 3.9 ESE 11 20 6 11 1019.1 - 0.0
24/01:45pm 25.2 26.0 19.0 68 4.0 ESE 13 20 7 11 1019.3 - 0.0
24/01:30pm 25.3 26.2 19.2 69 3.9 ESE 13 22 7 12 1019.4 - 0.0
24/01:15pm 25.7 26.1 19.1 67 4.3 ESE 15 28 8 15 1019.6 - 0.0
24/01:00pm 25.0 25.8 19.0 69 3.9 ESE 13 20 7 11 1019.7 - 0.0
24/12:45pm 25.1 25.5 19.0 69 3.9 ESE 15 22 8 12 1019.9 - 0.0
24/12:30pm 25.0 26.2 19.0 69 3.9 ESE 11 17 6 9 1020.1 - 0.0
24/12:15pm 25.5 27.2 19.3 68 4.0 E 9 15 5 8 1020.3 - 0.0
24/12:00pm 25.4 27.5 19.3 69 3.9 ENE 7 15 4 8 1020.4 - 0.0
24/11:45am 25.2 27.3 19.4 70 3.7 E 7 15 4 8 1020.5 - 0.0
24/11:30am 24.6 26.8 19.1 71 3.5 ESE 6 11 3 6 1020.5 - 0.0
24/11:15am 24.6 26.8 19.3 72 3.4 E 6 13 3 7 1020.7 - 0.0
24/11:00am 24.2 26.4 19.2 73 3.2 E 6 13 3 7 1020.9 - 0.0
24/10:45am 23.7 25.9 19.1 75 2.9 SE 6 11 3 6 1021.0 - 0.0

Other Formats:

Comma delimited format used in spreadsheet applications
http://www.bom.gov.au/fwo/IDN60801/IDN60801.95757.axf

JavaScript Object Notation format (JSON) in row-major order
http://www.bom.gov.au/fwo/IDN60801/IDN60801.95757.json